Time;durP1;ratioP1;P1;durP2;ratioP2;P2;SDS_P1;SDS_P2;PMS_P1;PMS_P2;Temp;Humidity;BMP_temperature;BMP_pressure;BME280_temperature;BME280_humidity;BME280_pressure;Samples;Min_cycle;Max_cycle;Signal;HPM_P1;HPM_P2
2023/07/13 00:01:16;;;;;;;3.50;2.75;;;16.20;99.90;;;;;;5144670;27;20479;-70
2023/07/13 00:03:42;;;;;;;5.85;2.88;;;16.20;99.90;;;;;;5140776;27;21249;-71
2023/07/13 00:06:08;;;;;;;6.15;3.08;;;16.10;99.90;;;;;;5146195;27;20038;-71
2023/07/13 00:08:35;;;;;;;5.68;3.00;;;16.00;99.90;;;;;;5146586;27;20046;-70
2023/07/13 00:11:02;;;;;;;4.03;3.35;;;16.00;99.90;;;;;;5145647;27;20091;-71
2023/07/13 00:13:29;;;;;;;5.65;2.92;;;16.00;99.90;;;;;;5110573;27;20050;-73
2023/07/13 00:15:57;;;;;;;5.18;3.42;;;16.00;99.90;;;;;;5142703;27;20039;-71
2023/07/13 00:18:23;;;;;;;6.85;3.30;;;16.00;99.90;;;;;;5135399;27;20879;-69
2023/07/13 00:20:49;;;;;;;7.40;3.30;;;16.00;99.90;;;;;;5127191;27;20038;-70
2023/07/13 00:23:15;;;;;;;6.57;2.92;;;16.00;99.90;;;;;;5144349;27;20581;-72
2023/07/13 00:25:40;;;;;;;5.05;2.97;;;16.00;99.90;;;;;;5140178;27;20042;-70
2023/07/13 00:28:06;;;;;;;7.32;3.30;;;16.00;99.90;;;;;;5093684;27;20082;-69
2023/07/13 00:30:32;;;;;;;4.72;3.38;;;16.00;99.90;;;;;;5143007;27;20079;-70
2023/07/13 00:32:57;;;;;;;4.75;3.28;;;16.00;99.90;;;;;;5146444;27;20069;-71
2023/07/13 00:35:23;;;;;;;10.35;3.42;;;16.00;99.90;;;;;;5104797;27;20035;-70
2023/07/13 00:37:49;;;;;;;6.90;3.38;;;16.00;99.90;;;;;;5142509;27;20050;-70
2023/07/13 00:40:16;;;;;;;6.90;2.70;;;16.10;99.90;;;;;;5143617;27;20042;-71
2023/07/13 00:42:42;;;;;;;6.55;3.83;;;16.10;99.90;;;;;;5143220;27;20368;-70
2023/07/13 00:45:08;;;;;;;5.60;3.75;;;16.10;99.90;;;;;;5139255;27;20467;-70
2023/07/13 00:47:33;;;;;;;7.30;3.30;;;16.20;99.90;;;;;;5133900;27;20060;-70
2023/07/13 00:50:00;;;;;;;7.00;3.40;;;16.20;99.90;;;;;;5142749;27;20062;-69
2023/07/13 00:52:28;;;;;;;7.10;3.20;;;16.20;99.90;;;;;;5124101;27;20050;-70
2023/07/13 00:54:54;;;;;;;6.10;2.45;;;16.30;99.90;;;;;;5118365;27;20508;-71
2023/07/13 00:57:21;;;;;;;9.65;3.83;;;16.30;99.90;;;;;;5135595;27;20050;-69
2023/07/13 00:59:51;;;;;;;6.60;3.25;;;16.40;99.90;;;;;;5148134;27;20126;-70
2023/07/13 01:02:17;;;;;;;8.98;3.15;;;16.40;99.90;;;;;;5133111;27;20483;-70
2023/07/13 01:04:43;;;;;;;4.53;2.88;;;16.40;99.90;;;;;;5141639;27;20437;-69
2023/07/13 01:07:11;;;;;;;5.88;3.47;;;16.50;99.90;;;;;;5136384;27;20517;-69
2023/07/13 01:09:37;;;;;;;10.02;4.60;;;16.50;99.90;;;;;;5116935;27;20128;-71
2023/07/13 01:12:03;;;;;;;5.07;2.90;;;16.50;99.90;;;;;;5116284;27;20059;-69
2023/07/13 01:14:30;;;;;;;6.32;3.20;;;16.50;99.90;;;;;;5136784;27;20064;-69
2023/07/13 01:16:56;;;;;;;6.78;3.55;;;16.50;99.90;;;;;;5142912;27;20069;-70
2023/07/13 01:19:43;;;;;;;5.95;3.85;;;16.50;99.90;;;;;;5141288;27;20054;-70
2023/07/13 01:22:11;;;;;;;8.57;3.45;;;16.50;99.90;;;;;;5147738;27;20086;-69
2023/07/13 01:24:38;;;;;;;7.45;3.72;;;16.50;99.90;;;;;;5148503;27;20051;-69
2023/07/13 01:27:05;;;;;;;8.80;3.63;;;16.50;99.90;;;;;;5123912;27;20134;-72
2023/07/13 01:29:33;;;;;;;8.07;3.90;;;16.50;99.90;;;;;;5137855;27;20058;-71
2023/07/13 01:32:00;;;;;;;9.18;3.45;;;16.50;99.90;;;;;;5120539;27;20089;-72
2023/07/13 01:34:26;;;;;;;8.68;3.58;;;16.50;99.90;;;;;;5140209;27;20049;-70
2023/07/13 01:36:53;;;;;;;12.25;4.28;;;16.50;99.90;;;;;;5136757;27;20129;-70
2023/07/13 01:39:21;;;;;;;7.10;3.60;;;16.50;99.90;;;;;;5149854;27;20061;-72
2023/07/13 01:41:47;;;;;;;7.88;3.85;;;16.50;99.90;;;;;;5124623;27;20383;-70
2023/07/13 01:44:12;;;;;;;9.10;3.95;;;16.50;99.90;;;;;;5142824;27;20544;-70
2023/07/13 01:46:38;;;;;;;9.82;3.50;;;16.60;99.90;;;;;;5161539;27;20763;-70
2023/07/13 01:49:04;;;;;;;11.05;4.15;;;16.60;99.90;;;;;;5145835;27;20121;-71
2023/07/13 01:51:29;;;;;;;6.07;3.47;;;16.60;99.90;;;;;;5148036;27;20042;-71
2023/07/13 01:53:55;;;;;;;11.50;3.65;;;16.60;99.90;;;;;;5139090;27;20077;-71
2023/07/13 01:56:21;;;;;;;11.65;4.38;;;16.60;99.90;;;;;;5152423;27;20429;-73
2023/07/13 01:58:47;;;;;;;7.25;4.32;;;16.60;99.90;;;;;;5161529;27;20576;-71
2023/07/13 02:01:13;;;;;;;8.02;3.90;;;16.60;99.90;;;;;;5159932;27;20046;-73
2023/07/13 02:03:39;;;;;;;10.77;4.07;;;16.60;99.90;;;;;;5147814;27;20057;-71
2023/07/13 02:06:06;;;;;;;7.55;4.13;;;16.60;99.90;;;;;;5146980;27;20057;-72
2023/07/13 02:08:33;;;;;;;8.18;4.15;;;16.60;99.90;;;;;;5083549;27;20042;-70
2023/07/13 02:10:59;;;;;;;8.98;3.88;;;16.50;99.90;;;;;;5142464;27;20051;-70
2023/07/13 02:13:25;;;;;;;10.07;4.43;;;16.50;99.90;;;;;;5144919;27;20047;-71
2023/07/13 02:15:51;;;;;;;8.82;4.72;;;16.50;99.90;;;;;;5145003;27;20042;-71
2023/07/13 02:18:17;;;;;;;8.90;4.05;;;16.50;99.90;;;;;;5142134;27;20237;-69
2023/07/13 02:20:43;;;;;;;6.63;3.33;;;16.50;99.90;;;;;;5140061;27;20802;-70
2023/07/13 02:23:09;;;;;;;7.50;3.45;;;16.50;99.90;;;;;;5136654;27;20519;-70
2023/07/13 02:25:35;;;;;;;9.70;3.75;;;16.50;99.90;;;;;;5139496;27;20031;-70
2023/07/13 02:28:01;;;;;;;7.22;3.55;;;16.50;99.90;;;;;;5146259;27;20054;-70
2023/07/13 02:30:29;;;;;;;8.98;4.10;;;16.50;99.90;;;;;;5148129;27;20485;-70
2023/07/13 02:32:55;;;;;;;10.98;4.13;;;16.50;99.90;;;;;;5131980;27;20592;-71
2023/07/13 02:35:21;;;;;;;6.82;3.28;;;16.50;99.90;;;;;;5146870;27;20102;-70
2023/07/13 02:37:47;;;;;;;4.90;3.25;;;16.50;99.90;;;;;;5142549;27;20855;-71
2023/07/13 02:40:13;;;;;;;10.60;3.38;;;16.50;99.90;;;;;;5130408;27;20075;-71
2023/07/13 02:42:39;;;;;;;8.95;3.22;;;16.40;99.90;;;;;;5104815;27;20062;-71
2023/07/13 02:45:06;;;;;;;7.32;3.70;;;16.40;99.90;;;;;;5141716;27;20604;-70
2023/07/13 02:47:32;;;;;;;6.30;4.25;;;16.40;99.90;;;;;;5146541;27;20117;-71
2023/07/13 02:55:18;;;;;;;6.90;4.05;;;16.30;99.90;;;;;;5594153;23;20853;-72
2023/07/13 02:57:44;;;;;;;10.30;4.85;;;16.20;99.90;;;;;;5001816;28;20049;-75
2023/07/13 03:00:10;;;;;;;7.45;3.47;;;16.20;99.90;;;;;;5018705;28;20056;-74
2023/07/13 03:02:36;;;;;;;6.55;3.17;;;16.10;99.90;;;;;;5052677;28;20051;-74
2023/07/13 03:05:01;;;;;;;8.77;4.10;;;16.10;99.90;;;;;;5052895;28;20434;-75
2023/07/13 03:07:27;;;;;;;14.82;4.72;;;16.10;99.90;;;;;;5052664;28;20056;-75
2023/07/13 03:09:57;;;;;;;8.02;3.42;;;16.00;99.90;;;;;;5052666;28;20140;-75
2023/07/13 03:12:24;;;;;;;7.82;4.10;;;16.00;99.90;;;;;;5034945;28;20055;-75
2023/07/13 03:14:50;;;;;;;8.35;3.78;;;16.00;99.90;;;;;;5053058;28;20049;-74
2023/07/13 03:17:16;;;;;;;8.93;4.00;;;15.90;99.90;;;;;;5052567;28;20087;-75
2023/07/13 03:19:42;;;;;;;10.32;4.90;;;15.80;99.90;;;;;;5035483;28;20053;-75
2023/07/13 03:22:07;;;;;;;10.10;3.65;;;15.80;99.90;;;;;;5052453;28;20048;-75
2023/07/13 03:24:34;;;;;;;10.88;4.22;;;15.80;99.90;;;;;;5035121;28;20040;-76
2023/07/13 03:27:04;;;;;;;8.00;4.03;;;15.80;99.90;;;;;;5052470;28;20045;-74
2023/07/13 03:29:30;;;;;;;6.68;4.57;;;15.70;99.90;;;;;;5035615;28;20122;-74
2023/07/13 03:31:55;;;;;;;10.98;4.13;;;15.70;99.90;;;;;;5051861;28;20565;-75
2023/07/13 03:34:21;;;;;;;10.23;4.60;;;15.70;99.90;;;;;;5035061;28;20041;-74
2023/07/13 03:36:47;;;;;;;6.95;3.75;;;15.60;99.90;;;;;;5052399;28;20119;-75
2023/07/13 03:39:12;;;;;;;12.30;4.10;;;15.60;99.90;;;;;;5034934;28;20095;-74
2023/07/13 03:41:38;;;;;;;9.35;4.28;;;15.60;99.90;;;;;;5052388;28;20045;-74
2023/07/13 03:44:04;;;;;;;11.10;5.65;;;15.60;99.90;;;;;;5052306;28;20103;-75
2023/07/13 03:46:30;;;;;;;6.22;3.72;;;15.60;99.90;;;;;;5034737;28;20037;-74
2023/07/13 03:48:56;;;;;;;8.30;4.55;;;15.60;99.90;;;;;;5034477;28;20364;-76
2023/07/13 03:51:22;;;;;;;4.78;3.40;;;15.60;99.90;;;;;;5034601;28;20040;-74
2023/07/13 03:53:48;;;;;;;9.57;4.60;;;15.60;99.90;;;;;;5051969;28;20049;-75
2023/07/13 03:56:15;;;;;;;8.02;5.22;;;15.60;99.90;;;;;;5034752;28;20057;-75
2023/07/13 03:58:42;;;;;;;9.55;4.85;;;15.60;99.90;;;;;;5052147;28;20543;-74
2023/07/13 04:01:10;;;;;;;8.15;3.70;;;15.70;99.90;;;;;;5052742;28;20049;-73
2023/07/13 04:03:36;;;;;;;8.15;3.63;;;15.70;99.90;;;;;;5052100;28;20086;-73
2023/07/13 04:06:04;;;;;;;10.43;4.65;;;15.80;99.90;;;;;;5052003;28;20071;-73
2023/07/13 04:08:32;;;;;;;10.52;4.18;;;15.80;99.90;;;;;;5052338;28;20049;-73
2023/07/13 04:10:59;;;;;;;9.80;4.32;;;15.80;99.90;;;;;;5018143;28;20059;-73
2023/07/13 04:13:26;;;;;;;9.85;4.75;;;15.80;99.90;;;;;;5052061;28;20053;-73
2023/07/13 04:15:52;;;;;;;10.15;5.18;;;15.80;99.90;;;;;;5034999;28;20056;-73
2023/07/13 04:18:19;;;;;;;11.52;4.93;;;15.90;99.90;;;;;;5052388;28;20048;-73
2023/07/13 04:20:46;;;;;;;6.78;4.18;;;15.90;99.90;;;;;;5051577;28;20473;-74
2023/07/13 04:23:11;;;;;;;8.27;3.83;;;16.00;99.90;;;;;;5052278;28;20057;-73
2023/07/13 04:25:37;;;;;;;8.30;3.95;;;16.00;99.90;;;;;;5051893;28;20037;-73
2023/07/13 04:28:04;;;;;;;7.20;2.92;;;16.00;99.90;;;;;;5034835;28;20049;-73
2023/07/13 04:30:30;;;;;;;10.70;4.43;;;16.00;99.90;;;;;;5054167;28;20123;-74
2023/07/13 04:32:55;;;;;;;9.50;4.15;;;16.00;99.90;;;;;;5054497;28;20473;-73
2023/07/13 04:35:21;;;;;;;6.43;4.20;;;16.10;99.90;;;;;;5052422;28;20045;-73
2023/07/13 04:37:49;;;;;;;7.72;4.05;;;16.10;99.90;;;;;;5051779;28;20449;-74
2023/07/13 04:40:19;;;;;;;10.32;4.82;;;16.20;99.90;;;;;;5034731;28;20060;-74
2023/07/13 04:42:46;;;;;;;9.20;3.67;;;16.20;99.90;;;;;;5051736;28;20056;-73
2023/07/13 04:45:14;;;;;;;13.52;4.85;;;16.20;99.90;;;;;;5054249;28;20041;-73
2023/07/13 04:47:40;;;;;;;7.90;4.05;;;16.30;99.90;;;;;;5055357;28;20045;-73
2023/07/13 04:50:07;;;;;;;11.05;3.83;;;16.30;99.90;;;;;;5037838;28;20110;-74
2023/07/13 04:52:33;;;;;;;8.88;4.65;;;16.40;99.90;;;;;;5055563;28;20049;-73
2023/07/13 04:55:00;;;;;;;12.57;5.05;;;16.40;99.90;;;;;;5037093;28;20041;-74
2023/07/13 04:57:26;;;;;;;10.15;4.30;;;16.50;99.90;;;;;;5055457;28;20049;-74
2023/07/13 04:59:52;;;;;;;11.60;4.20;;;16.60;99.90;;;;;;5054962;28;20515;-73
2023/07/13 05:02:19;;;;;;;6.03;4.18;;;16.70;99.90;;;;;;5054972;28;20057;-73
2023/07/13 05:04:47;;;;;;;9.27;5.28;;;16.70;99.90;;;;;;5054445;28;20484;-73
2023/07/13 05:07:13;;;;;;;8.88;4.18;;;16.70;99.90;;;;;;5054900;28;20124;-73
2023/07/13 05:09:40;;;;;;;9.75;4.57;;;16.80;99.90;;;;;;5054788;28;20130;-73
2023/07/13 05:12:07;;;;;;;9.60;4.57;;;16.90;99.90;;;;;;5037139;28;20048;-74
2023/07/13 05:14:33;;;;;;;6.97;3.90;;;16.90;99.90;;;;;;5037352;28;20063;-74
2023/07/13 05:16:58;;;;;;;7.65;3.63;;;17.00;99.90;;;;;;5021116;28;20457;-74
2023/07/13 05:19:24;;;;;;;8.90;4.55;;;17.00;99.90;;;;;;5036502;28;20118;-74
2023/07/13 05:21:50;;;;;;;6.38;4.05;;;17.00;99.90;;;;;;5054758;28;20081;-73
2023/07/13 05:24:15;;;;;;;10.70;3.47;;;17.00;99.90;;;;;;5037099;28;20049;-74
2023/07/13 05:26:41;;;;;;;7.13;4.22;;;17.10;99.90;;;;;;5036625;28;20103;-73
2023/07/13 05:29:07;;;;;;;8.02;3.80;;;17.10;99.90;;;;;;5055265;28;20470;-74
2023/07/13 05:31:32;;;;;;;6.35;4.10;;;17.10;99.90;;;;;;5054767;28;20049;-73
2023/07/13 05:33:58;;;;;;;9.25;4.47;;;17.20;99.90;;;;;;5054550;28;20400;-74
2023/07/13 05:36:24;;;;;;;7.88;3.40;;;17.20;99.90;;;;;;5054441;28;20187;-72
2023/07/13 05:38:49;;;;;;;9.45;4.45;;;17.30;99.90;;;;;;5054831;28;20053;-73
2023/07/13 05:41:15;;;;;;;13.43;4.20;;;17.30;99.90;;;;;;5054437;28;20048;-72
2023/07/13 05:43:40;;;;;;;9.48;3.92;;;17.40;99.90;;;;;;5054816;28;20446;-72
2023/07/13 05:46:06;;;;;;;8.75;4.05;;;17.40;99.90;;;;;;5020083;28;20413;-73
2023/07/13 05:48:32;;;;;;;6.05;4.05;;;17.50;99.90;;;;;;5036463;28;20135;-73
2023/07/13 05:50:58;;;;;;;8.32;4.47;;;17.60;99.90;;;;;;5054164;28;20037;-73
2023/07/13 05:53:23;;;;;;;9.73;3.85;;;17.60;99.90;;;;;;5036320;28;20511;-73
2023/07/13 05:55:52;;;;;;;7.05;4.28;;;17.70;99.90;;;;;;5053712;28;20509;-73
2023/07/13 05:58:19;;;;;;;6.82;4.07;;;17.80;99.90;;;;;;5036410;28;20482;-73
2023/07/13 06:00:45;;;;;;;5.30;3.47;;;17.90;99.90;;;;;;5019994;28;20091;-73
2023/07/13 06:03:11;;;;;;;6.43;3.30;;;17.90;99.90;;;;;;5036345;28;20052;-73
2023/07/13 06:05:38;;;;;;;6.20;3.70;;;18.10;99.90;;;;;;5036243;28;20045;-73
2023/07/13 06:08:04;;;;;;;8.55;3.58;;;18.10;99.90;;;;;;5053885;28;20060;-73
2023/07/13 06:10:33;;;;;;;7.70;3.90;;;19.10;99.90;;;;;;5036847;28;20395;-74
2023/07/13 06:12:59;;;;;;;6.07;3.28;;;17.50;99.90;;;;;;5053530;28;20489;-72
2023/07/13 06:15:24;;;;;;;8.05;4.10;;;18.40;99.90;;;;;;5054053;28;20045;-73
2023/07/13 06:17:50;;;;;;;7.15;3.40;;;18.60;99.90;;;;;;5053553;28;20130;-72
2023/07/13 06:20:16;;;;;;;9.40;3.72;;;18.70;99.90;;;;;;5020188;28;20045;-73
2023/07/13 06:22:41;;;;;;;6.80;3.50;;;18.70;99.90;;;;;;5053734;28;20045;-72
2023/07/13 06:25:08;;;;;;;4.85;2.92;;;18.70;99.90;;;;;;5053746;28;20040;-73
2023/07/13 06:27:33;;;;;;;7.03;3.13;;;18.80;99.90;;;;;;5053889;28;20044;-73
2023/07/13 06:29:59;;;;;;;7.80;3.47;;;;;;;;;;5035822;28;20128;-74
2023/07/13 06:32:25;;;;;;;6.60;2.30;;;;;;;;;;5053592;28;20052;-73
2023/07/13 06:34:51;;;;;;;9.85;3.33;;;;;;;;;;5035603;28;20045;-73
2023/07/13 06:37:18;;;;;;;6.70;3.15;;;22.50;99.90;;;;;;5053478;28;20064;-74
2023/07/13 06:39:43;;;;;;;8.27;2.70;;;23.20;99.90;;;;;;5053415;28;20056;-75
2023/07/13 06:42:09;;;;;;;6.18;2.55;;;23.80;99.90;;;;;;5036092;28;20040;-73
2023/07/13 06:44:35;;;;;;;6.85;3.33;;;23.90;99.90;;;;;;5036071;28;20042;-74
2023/07/13 06:47:01;;;;;;;5.78;2.72;;;24.50;99.90;;;;;;5053570;28;20086;-73
2023/07/13 06:49:26;;;;;;;9.85;2.85;;;24.70;99.90;;;;;;5053333;28;20373;-74
2023/07/13 06:51:52;;;;;;;5.45;2.95;;;25.20;99.90;;;;;;5018847;28;20120;-73
2023/07/13 06:54:18;;;;;;;5.03;2.42;;;25.30;99.90;;;;;;5053578;28;20070;-75
2023/07/13 06:56:43;;;;;;;6.55;2.83;;;25.50;98.20;;;;;;5034936;28;20057;-75
2023/07/13 06:59:09;;;;;;;5.47;3.25;;;25.80;97.80;;;;;;5052953;28;20049;-73
2023/07/13 07:01:35;;;;;;;8.68;3.25;;;26.00;98.70;;;;;;5035565;28;20045;-75
2023/07/13 07:04:00;;;;;;;4.15;2.45;;;26.40;98.90;;;;;;5035754;28;20060;-74
2023/07/13 07:06:26;;;;;;;5.60;2.00;;;26.50;97.50;;;;;;5034547;28;20045;-74
2023/07/13 07:08:52;;;;;;;4.32;2.00;;;26.70;97.70;;;;;;5052599;28;20041;-75
2023/07/13 07:11:22;;;;;;;5.53;1.90;;;27.10;96.90;;;;;;5035150;28;20049;-75
2023/07/13 07:13:48;;;;;;;6.38;2.13;;;27.80;93.70;;;;;;5052633;28;20049;-75
2023/07/13 07:16:14;;;;;;;6.55;2.22;;;28.00;95.80;;;;;;5034869;28;20044;-74
2023/07/13 07:18:40;;;;;;;6.25;2.15;;;27.30;95.40;;;;;;5052537;28;20199;-74
2023/07/13 07:21:05;;;;;;;4.80;1.98;;;26.80;95.70;;;;;;5052471;28;20048;-74
2023/07/13 07:23:31;;;;;;;4.68;2.47;;;26.40;95.80;;;;;;5034885;28;20047;-75
2023/07/13 07:25:57;;;;;;;4.47;2.05;;;25.60;96.00;;;;;;5035284;28;20080;-73
2023/07/13 07:28:24;;;;;;;4.95;2.13;;;24.70;96.50;;;;;;5052661;28;20099;-74
2023/07/13 07:30:53;;;;;;;6.57;1.98;;;23.80;97.30;;;;;;5052782;28;20056;-74
2023/07/13 07:33:18;;;;;;;4.97;1.70;;;23.10;97.80;;;;;;5034883;28;20460;-74
2023/07/13 07:35:44;;;;;;;3.88;1.80;;;22.60;98.20;;;;;;5052515;28;20045;-74
2023/07/13 07:38:10;;;;;;;5.80;2.00;;;22.20;98.40;;;;;;5052228;28;20191;-75
2023/07/13 07:40:40;;;;;;;5.13;2.00;;;22.20;98.80;;;;;;5018240;28;20128;-72
2023/07/13 07:43:11;;;;;;;3.28;2.05;;;22.10;98.40;;;;;;5052559;28;20053;-73
2023/07/13 07:45:38;;;;;;;3.13;1.92;;;22.00;98.20;;;;;;5052174;28;20067;-72
2023/07/13 07:48:04;;;;;;;4.70;2.20;;;22.00;98.40;;;;;;5052967;28;20041;-73
2023/07/13 07:50:31;;;;;;;3.58;2.05;;;21.80;98.40;;;;;;5052323;28;20048;-73
2023/07/13 07:52:57;;;;;;;3.72;1.55;;;22.60;98.20;;;;;;5052265;28;20489;-73
2023/07/13 07:55:25;;;;;;;2.83;1.88;;;23.90;97.40;;;;;;5052141;28;20057;-74
2023/07/13 07:57:50;;;;;;;5.38;1.98;;;24.30;97.10;;;;;;5034846;28;20475;-74
2023/07/13 08:00:16;;;;;;;3.35;1.42;;;24.20;96.60;;;;;;5052777;28;20052;-74
2023/07/13 08:02:43;;;;;;;2.78;1.80;;;24.10;96.70;;;;;;5034649;28;20411;-73
2023/07/13 08:05:09;;;;;;;2.33;1.65;;;24.20;96.70;;;;;;5052077;28;20041;-73
2023/07/13 08:07:36;;;;;;;4.72;2.47;;;23.90;96.30;;;;;;5035126;28;20499;-74
2023/07/13 08:10:02;;;;;;;4.82;2.00;;;23.50;96.60;;;;;;5052403;28;20041;-73
2023/07/13 08:12:28;;;;;;;3.55;2.00;;;23.20;97.00;;;;;;5034186;28;20434;-73
2023/07/13 08:14:53;;;;;;;3.55;1.58;;;22.80;97.20;;;;;;5051962;28;20049;-73
2023/07/13 08:17:23;;;;;;;4.38;1.90;;;22.50;97.40;;;;;;5052591;28;20045;-74
2023/07/13 08:19:49;;;;;;;6.05;2.65;;;22.10;97.60;;;;;;5055685;28;20053;-73
2023/07/13 08:22:15;;;;;;;3.50;1.85;;;22.00;97.90;;;;;;5038347;28;20067;-73
2023/07/13 08:24:42;;;;;;;2.72;2.00;;;22.10;98.10;;;;;;5055840;28;20458;-74
2023/07/13 08:27:08;;;;;;;5.47;1.92;;;22.70;97.70;;;;;;5055852;28;20068;-73
2023/07/13 08:29:34;;;;;;;5.68;2.47;;;23.10;97.30;;;;;;5037731;28;20408;-73
2023/07/13 08:32:00;;;;;;;3.67;2.05;;;23.20;97.50;;;;;;5055889;28;20049;-72
2023/07/13 08:34:25;;;;;;;4.22;2.05;;;23.10;97.20;;;;;;5037815;28;20126;-73
2023/07/13 08:36:51;;;;;;;7.70;3.05;;;22.80;97.30;;;;;;5056084;28;20434;-74
2023/07/13 08:39:17;;;;;;;4.93;2.63;;;22.40;97.60;;;;;;5055884;28;20044;-74
2023/07/13 08:41:47;;;;;;;7.00;3.22;;;22.10;98.70;;;;;;5055607;28;20076;-73
2023/07/13 08:44:26;;;;;;;7.07;2.90;;;21.80;99.60;;;;;;5037953;28;20092;-73
2023/07/13 08:46:55;;;;;;;16.05;3.78;;;21.50;99.90;;;;;;5055678;28;20119;-72
2023/07/13 08:49:23;;;;;;;5.82;3.38;;;21.40;99.90;;;;;;5056060;28;20049;-74
2023/07/13 08:52:01;;;;;;;4.78;2.45;;;21.20;99.90;;;;;;5037513;28;20051;-73
2023/07/13 08:54:51;;;;;;;2.45;2.00;;;21.00;99.90;;;;;;5055876;28;20044;-74
2023/07/13 08:57:20;;;;;;;4.72;2.30;;;20.70;99.90;;;;;;5055097;28;20064;-74
2023/07/13 08:59:46;;;;;;;5.35;2.28;;;20.40;99.90;;;;;;5055754;28;20045;-73
2023/07/13 09:02:15;;;;;;;4.28;1.85;;;20.20;99.90;;;;;;5055240;28;20068;-73
2023/07/13 09:05:12;;;;;;;3.60;2.05;;;19.80;99.90;;;;;;5055676;28;20052;-73
2023/07/13 09:07:37;;;;;;;3.60;2.05;;;19.40;99.70;;;;;;5055042;28;20037;-74
2023/07/13 09:10:03;;;;;;;5.97;2.55;;;19.10;99.90;;;;;;5055452;28;20045;-73
2023/07/13 09:12:57;;;;;;;5.90;2.88;;;19.30;99.90;;;;;;5037145;28;20049;-73
2023/07/13 09:15:37;;;;;;;4.15;2.30;;;20.60;99.90;;;;;;5037612;28;20053;-74
2023/07/13 09:18:10;;;;;;;3.25;2.05;;;21.60;99.90;;;;;;5055312;28;20476;-73
2023/07/13 09:20:45;;;;;;;3.08;1.85;;;22.40;98.40;;;;;;5054938;28;20049;-74
2023/07/13 09:23:19;;;;;;;4.38;2.40;;;22.40;98.00;;;;;;5037765;28;20136;-73
2023/07/13 09:25:50;;;;;;;2.65;1.52;;;22.30;98.10;;;;;;5054795;28;20495;-73
2023/07/13 09:28:20;;;;;;;4.10;1.85;;;23.10;98.30;;;;;;5054710;28;20059;-74
2023/07/13 09:31:07;;;;;;;3.92;1.88;;;23.50;96.90;;;;;;5054143;28;20124;-74
2023/07/13 09:33:34;;;;;;;1.75;1.65;;;24.00;96.40;;;;;;5054572;28;20120;-73
2023/07/13 09:36:01;;;;;;;2.30;1.52;;;24.30;97.40;;;;;;5037115;28;20053;-73
2023/07/13 09:38:29;;;;;;;2.50;1.50;;;24.70;97.70;;;;;;5054469;28;20049;-73
2023/07/13 09:41:28;;;;;;;2.60;2.17;;;25.40;97.70;;;;;;5054820;28;20053;-73
2023/07/13 09:44:12;;;;;;;4.75;2.08;;;26.00;95.60;;;;;;5055049;28;20052;-73
2023/07/13 09:46:43;;;;;;;3.03;1.90;;;26.30;94.90;;;;;;5054573;28;20119;-73
2023/07/13 09:49:10;;;;;;;3.22;1.83;;;26.80;96.00;;;;;;5036991;28;20124;-74
2023/07/13 09:51:46;;;;;;;4.75;1.92;;;27.00;96.40;;;;;;5054104;28;20071;-73
2023/07/13 09:54:20;;;;;;;2.70;2.03;;;26.90;96.20;;;;;;5054878;28;20045;-73
2023/07/13 09:56:46;;;;;;;4.90;1.90;;;26.70;95.70;;;;;;5054083;28;20069;-73
2023/07/13 09:59:39;;;;;;;3.95;2.40;;;26.20;96.20;;;;;;5054199;28;20057;-74
2023/07/13 10:02:30;;;;;;;5.38;2.78;;;25.40;96.20;;;;;;5028481;28;20061;-73
2023/07/13 10:05:11;;;;;;;6.35;2.95;;;24.70;98.60;;;;;;5042109;28;20059;-74
2023/07/13 10:07:46;;;;;;;5.75;2.33;;;24.00;99.30;;;;;;5053913;28;20384;-74
2023/07/13 10:10:21;;;;;;;5.80;2.70;;;23.30;99.90;;;;;;5054089;28;20099;-74
2023/07/13 10:12:47;;;;;;;6.47;3.17;;;22.50;99.90;;;;;;5036472;28;20045;-74
2023/07/13 10:15:17;;;;;;;4.85;3.30;;;22.00;99.90;;;;;;5035844;28;20120;-74
2023/07/13 10:17:44;;;;;;;7.38;3.78;;;21.60;99.90;;;;;;5053794;28;20098;-73
2023/07/13 10:20:12;;;;;;;5.25;3.38;;;21.20;99.90;;;;;;5053510;28;20095;-74
2023/07/13 10:23:04;;;;;;;6.38;3.58;;;20.90;99.90;;;;;;5053523;28;20084;-74
2023/07/13 10:25:34;;;;;;;4.15;3.08;;;20.80;99.90;;;;;;5019153;28;20525;-76
2023/07/13 10:28:25;;;;;;;4.35;3.50;;;20.80;99.90;;;;;;5053227;28;20049;-76
2023/07/13 10:30:53;;;;;;;4.75;3.50;;;20.90;99.90;;;;;;5035409;28;20053;-76
2023/07/13 10:33:20;;;;;;;4.82;2.85;;;20.90;99.90;;;;;;5053034;28;20095;-76
2023/07/13 10:35:51;;;;;;;4.28;3.92;;;20.90;99.90;;;;;;5053107;28;20136;-76
2023/07/13 10:38:23;;;;;;;4.40;4.00;;;21.10;99.90;;;;;;5035721;28;20399;-76
2023/07/13 10:41:07;;;;;;;3.63;3.33;;;21.70;99.90;;;;;;5052785;28;20041;-75
2023/07/13 10:43:37;;;;;;;3.47;3.17;;;22.40;99.90;;;;;;5035553;28;20370;-75
2023/07/13 10:46:09;;;;;;;3.90;2.67;;;23.10;99.90;;;;;;5053297;28;20052;-76
2023/07/13 10:48:36;;;;;;;3.45;2.70;;;22.70;99.90;;;;;;5052910;28;20170;-76
2023/07/13 10:51:05;;;;;;;3.20;2.58;;;22.30;99.90;;;;;;5035830;28;20052;-76
2023/07/13 10:53:34;;;;;;;2.70;2.50;;;22.10;99.90;;;;;;5052781;28;20041;-76
2023/07/13 10:56:05;;;;;;;3.65;2.72;;;21.80;99.90;;;;;;5052872;28;20041;-76
2023/07/13 10:58:37;;;;;;;4.13;2.55;;;22.00;99.90;;;;;;5052507;28;20136;-75
2023/07/13 11:01:06;;;;;;;3.57;2.67;;;22.50;99.90;;;;;;5052672;28;20052;-75
2023/07/13 11:03:35;;;;;;;2.90;2.42;;;23.00;99.90;;;;;;5052628;28;20291;-75
2023/07/13 11:06:18;;;;;;;4.07;2.50;;;23.50;99.90;;;;;;5052470;28;20040;-76
2023/07/13 11:08:46;;;;;;;2.45;2.25;;;23.90;99.90;;;;;;5034562;28;20045;-75
2023/07/13 11:11:24;;;;;;;2.40;2.20;;;24.00;99.90;;;;;;5052870;28;20049;-75
2023/07/13 11:13:50;;;;;;;6.47;2.55;;;24.00;99.90;;;;;;5034763;28;20124;-75
2023/07/13 11:16:15;;;;;;;4.80;2.50;;;24.00;99.90;;;;;;5052132;28;20477;-72
2023/07/13 11:18:45;;;;;;;3.53;2.03;;;23.80;99.90;;;;;;5052405;28;20087;-74
2023/07/13 11:21:18;;;;;;;3.03;2.08;;;23.40;99.90;;;;;;5052388;28;20074;-75
2023/07/13 11:23:52;;;;;;;5.38;2.60;;;23.40;99.90;;;;;;5052442;28;20045;-75
2023/07/13 11:26:52;;;;;;;5.68;2.75;;;23.50;99.90;;;;;;5052177;28;20052;-74
2023/07/13 11:29:17;;;;;;;2.42;2.20;;;23.70;99.90;;;;;;5052720;28;20055;-74
2023/07/13 11:31:52;;;;;;;2.28;2.00;;;23.70;99.90;;;;;;5018806;28;20057;-73
2023/07/13 11:34:26;;;;;;;3.33;2.10;;;23.60;99.10;;;;;;5034414;28;20049;-74
2023/07/13 11:36:52;;;;;;;3.28;2.22;;;23.70;99.90;;;;;;5052365;28;20045;-74
2023/07/13 11:39:23;;;;;;;3.38;1.80;;;23.70;99.90;;;;;;5052170;28;20044;-73
2023/07/13 11:41:56;;;;;;;4.00;1.65;;;23.70;98.70;;;;;;5052195;28;20057;-75
2023/07/13 11:44:24;;;;;;;2.78;1.45;;;23.90;98.50;;;;;;5052610;28;20045;-74
2023/07/13 11:47:00;;;;;;;3.95;1.77;;;24.00;98.00;;;;;;5052459;28;20041;-74
2023/07/13 11:49:31;;;;;;;4.03;2.05;;;24.10;97.40;;;;;;5052230;28;20531;-74
2023/07/13 11:51:59;;;;;;;4.72;2.20;;;23.80;95.10;;;;;;5034520;28;20080;-74
2023/07/13 11:54:26;;;;;;;2.33;1.60;;;23.60;96.50;;;;;;5055735;28;20070;-75
2023/07/13 11:56:54;;;;;;;2.50;1.70;;;23.40;96.20;;;;;;5056430;28;20154;-74
2023/07/13 11:59:21;;;;;;;3.35;1.80;;;23.60;96.60;;;;;;5056104;28;20107;-73
2023/07/13 12:01:54;;;;;;;3.40;2.17;;;23.80;96.70;;;;;;5056343;28;20055;-74
2023/07/13 12:04:27;;;;;;;3.20;1.60;;;23.80;95.80;;;;;;5056187;28;20056;-74
2023/07/13 12:06:58;;;;;;;;;;;23.40;94.30;;;;;;5056457;28;20037;-74
2023/07/13 12:09:27;;;;;;;4.57;2.08;;;23.10;94.00;;;;;;5055958;28;19927;-74
2023/07/13 12:11:53;;;;;;;2.42;2.15;;;23.10;95.60;;;;;;5055953;28;20052;-75
2023/07/13 12:14:20;;;;;;;4.90;1.92;;;23.20;95.50;;;;;;5056277;28;20140;-75
2023/07/13 12:16:47;;;;;;;2.70;1.67;;;23.50;95.50;;;;;;5055778;28;20045;-75
2023/07/13 12:19:21;;;;;;;5.00;1.55;;;23.60;94.40;;;;;;5055511;28;20502;-74
2023/07/13 12:21:48;;;;;;;3.72;1.90;;;23.40;93.30;;;;;;5038491;28;20045;-76
2023/07/13 12:24:20;;;;;;;2.92;1.55;;;23.30;93.60;;;;;;5055999;28;20364;-74
2023/07/13 12:27:15;;;;;;;3.17;1.70;;;23.60;94.70;;;;;;5055669;28;20119;-76
2023/07/13 12:30:06;;;;;;;3.13;1.80;;;23.60;93.50;;;;;;5055203;28;20314;-75
2023/07/13 12:32:32;;;;;;;5.03;2.25;;;23.70;94.10;;;;;;5055258;28;20526;-75
2023/07/13 12:35:15;;;;;;;3.35;1.45;;;24.00;93.60;;;;;;5055090;28;20045;-76
2023/07/13 12:37:46;;;;;;;3.03;2.22;;;24.10;93.00;;;;;;5055823;28;20087;-75
2023/07/13 12:40:22;;;;;;;5.18;1.60;;;24.20;93.30;;;;;;5055586;28;20053;-75
2023/07/13 12:42:49;;;;;;;5.60;1.92;;;24.40;93.00;;;;;;5055983;28;20048;-75
2023/07/13 12:45:25;;;;;;;4.43;2.38;;;24.50;93.40;;;;;;5055226;28;20078;-75
2023/07/13 12:48:02;;;;;;;2.08;1.50;;;24.70;92.70;;;;;;5055085;28;20041;-75
2023/07/13 12:50:37;;;;;;;4.63;1.50;;;24.60;92.40;;;;;;5037518;28;20554;-76
2023/07/13 12:53:09;;;;;;;3.42;1.90;;;24.30;91.90;;;;;;5037876;28;20053;-76
2023/07/13 12:55:43;;;;;;;2.77;1.73;;;23.90;92.30;;;;;;5054807;28;20543;-75
2023/07/13 12:58:18;;;;;;;1.83;1.50;;;23.70;92.80;;;;;;5055453;28;20059;-76
2023/07/13 13:00:52;;;;;;;3.13;1.73;;;23.40;92.50;;;;;;5055555;28;20049;-76